Time,TemperatureF,DewpointF,PressureIn,WindDirection,WindDirectionDegrees,WindSpeedMPH,WindSpeedGustMPH,Humidity,HourlyPrecipIn,Conditions,Clouds,dailyrainin,SoftwareType,DateUTC
2013-05-28 00:03:00,46.0,44.0,-100.00,North,0,1.0,2.0,91,0.00,,,-99.99,,2013-05-28 04:03:00,
2013-05-28 00:13:00,46.0,44.0,-100.00,SSE,155,0.0,1.0,91,0.00,,,-99.99,,2013-05-28 04:13:00,
2013-05-28 00:22:00,46.0,44.0,-100.00,WNW,300,1.0,1.0,92,0.00,,,-99.99,,2013-05-28 04:22:00,
2013-05-28 00:33:00,45.0,44.0,-100.00,NE,55,0.0,1.0,92,0.00,,,-99.99,,2013-05-28 04:33:00,
2013-05-28 00:43:00,45.0,43.0,-100.00,West,275,1.0,1.0,92,0.00,,,-99.99,,2013-05-28 04:43:00,
2013-05-28 00:52:00,45.0,43.0,-100.00,North,-999,-999.0,-999.0,93,0.00,,,-99.99,,2013-05-28 04:52:00,
2013-05-28 01:02:00,45.0,43.0,-100.00,WSW,250,0.0,1.0,93,0.00,,,-99.99,,2013-05-28 05:02:00,
2013-05-28 01:12:00,44.0,42.0,-100.00,SW,225,1.0,1.0,93,0.00,,,-99.99,,2013-05-28 05:12:00,
2013-05-28 01:22:00,44.0,42.0,-100.00,SSE,155,0.0,1.0,93,0.00,,,-99.99,,2013-05-28 05:22:00,
2013-05-28 01:33:00,44.0,42.0,-100.00,West,260,1.0,1.0,94,0.00,,,-99.99,,2013-05-28 05:33:00,
2013-05-28 01:42:00,44.0,42.0,-100.00,WSW,250,0.0,1.0,94,0.00,,,-99.99,,2013-05-28 05:42:00,
2013-05-28 01:52:00,43.0,42.0,-100.00,NNW,340,1.0,2.0,94,0.00,,,-99.99,,2013-05-28 05:52:00,
2013-05-28 02:02:00,43.0,42.0,-100.00,South,175,0.0,1.0,94,0.00,,,-99.99,,2013-05-28 06:02:00,
2013-05-28 02:12:00,43.0,42.0,-100.00,NNW,345,0.0,1.0,94,0.00,,,-99.99,,2013-05-28 06:12:00,
2013-05-28 02:22:00,43.0,42.0,-100.00,West,260,0.0,1.0,95,0.00,,,-99.99,,2013-05-28 06:22:00,
2013-05-28 02:32:00,43.0,41.0,-100.00,North,350,0.0,1.0,95,0.00,,,-99.99,,2013-05-28 06:32:00,
2013-05-28 02:42:00,43.0,42.0,-100.00,NW,320,0.0,1.0,95,0.00,,,-99.99,,2013-05-28 06:42:00,
2013-05-28 02:51:00,43.0,42.0,-100.00,NNE,15,1.0,1.0,95,0.00,,,-99.99,,2013-05-28 06:51:00,
2013-05-28 03:01:00,42.0,41.0,-100.00,East,95,1.0,1.0,95,0.00,,,-99.99,,2013-05-28 07:01:00,
2013-05-28 03:11:00,42.0,41.0,-100.00,NE,40,0.0,2.0,95,0.00,,,-99.99,,2013-05-28 07:11:00,
2013-05-28 03:21:00,42.0,41.0,-100.00,NE,55,0.0,1.0,95,0.00,,,-99.99,,2013-05-28 07:21:00,
2013-05-28 03:32:00,42.0,41.0,-100.00,West,265,0.0,1.0,96,0.00,,,-99.99,,2013-05-28 07:32:00,
2013-05-28 03:42:00,42.0,41.0,-100.00,SSW,210,0.0,1.0,96,0.00,,,-99.99,,2013-05-28 07:42:00,
2013-05-28 03:52:00,42.0,41.0,-100.00,NE,45,0.0,2.0,96,0.00,,,-99.99,,2013-05-28 07:52:00,
2013-05-28 04:02:00,42.0,41.0,-100.00,East,95,1.0,2.0,96,0.00,,,-99.99,,2013-05-28 08:02:00,
2013-05-28 04:12:00,41.0,40.0,-100.00,West,260,0.0,1.0,96,0.00,,,-99.99,,2013-05-28 08:12:00,
2013-05-28 04:22:00,41.0,40.0,-100.00,North,355,1.0,1.0,96,0.00,,,-99.99,,2013-05-28 08:22:00,
2013-05-28 04:32:00,42.0,40.0,-100.00,NNW,330,1.0,3.0,96,0.00,,,-99.99,,2013-05-28 08:32:00,
2013-05-28 04:42:00,41.0,40.0,-100.00,SE,135,1.0,2.0,96,0.00,,,-99.99,,2013-05-28 08:42:00,
2013-05-28 04:51:00,41.0,40.0,-100.00,SSW,210,0.0,3.0,96,0.00,,,-99.99,,2013-05-28 08:51:00,
2013-05-28 05:01:00,41.0,40.0,-100.00,NW,310,1.0,4.0,96,0.00,,,-99.99,,2013-05-28 09:01:00,
2013-05-28 05:11:00,41.0,40.0,-100.00,NNW,345,1.0,4.0,96,0.00,,,-99.99,,2013-05-28 09:11:00,
2013-05-28 05:21:00,41.0,40.0,-100.00,NE,35,1.0,3.0,96,0.00,,,-99.99,,2013-05-28 09:21:00,
2013-05-28 05:33:00,41.0,41.0,-100.00,North,5,1.0,3.0,96,0.00,,,-99.99,,2013-05-28 09:33:00,
2013-05-28 05:43:00,42.0,41.0,-100.00,NNW,340,1.0,4.0,96,0.00,,,-99.99,,2013-05-28 09:43:00,
2013-05-28 05:53:00,42.0,41.0,-100.00,ENE,60,1.0,4.0,96,0.00,,,-99.99,,2013-05-28 09:53:00,
2013-05-28 06:03:00,42.0,41.0,-100.00,North,5,2.0,4.0,96,0.00,,,-99.99,,2013-05-28 10:03:00,
2013-05-28 06:12:00,43.0,42.0,-100.00,North,10,1.0,4.0,96,0.00,,,-99.99,,2013-05-28 10:12:00,
2013-05-28 06:23:00,43.0,42.0,-100.00,NNW,330,1.0,4.0,96,0.00,,,-99.99,,2013-05-28 10:23:00,
2013-05-28 06:32:00,44.0,43.0,-100.00,NNW,345,2.0,4.0,96,0.00,,,-99.99,,2013-05-28 10:32:00,
2013-05-28 06:42:00,44.0,43.0,-100.00,North,0,1.0,5.0,96,0.00,,,-99.99,,2013-05-28 10:42:00,
2013-05-28 06:53:00,45.0,44.0,-100.00,East,85,1.0,4.0,96,0.00,,,-99.99,,2013-05-28 10:53:00,
2013-05-28 07:02:00,46.0,45.0,-100.00,North,0,1.0,4.0,95,0.00,,,-99.99,,2013-05-28 11:02:00,
2013-05-28 07:11:00,48.0,46.0,-100.00,NE,50,1.0,4.0,93,0.00,,,-99.99,,2013-05-28 11:11:00,
2013-05-28 07:22:00,49.0,47.0,-100.00,NE,35,1.0,4.0,92,0.00,,,-99.99,,2013-05-28 11:22:00,
2013-05-28 07:32:00,50.0,47.0,-100.00,North,355,1.0,4.0,89,0.00,,,-99.99,,2013-05-28 11:32:00,
2013-05-28 07:42:00,52.0,47.0,-100.00,North,10,1.0,3.0,82,0.00,,,-99.99,,2013-05-28 11:42:00,
2013-05-28 07:52:00,54.0,46.0,-100.00,North,10,1.0,4.0,74,0.00,,,-99.99,,2013-05-28 11:52:00,
2013-05-28 08:01:00,55.0,46.0,-100.00,NE,35,1.0,4.0,72,0.00,,,-99.99,,2013-05-28 12:01:00,
2013-05-28 08:11:00,56.0,46.0,-100.00,NNE,30,1.0,4.0,68,0.00,,,-99.99,,2013-05-28 12:11:00,
2013-05-28 08:21:00,57.0,46.0,-100.00,NNE,30,1.0,4.0,66,0.00,,,-99.99,,2013-05-28 12:21:00,
2013-05-28 08:32:00,58.0,46.0,-100.00,NNE,25,2.0,4.0,65,0.00,,,-99.99,,2013-05-28 12:32:00,
2013-05-28 08:42:00,59.0,46.0,-100.00,North,0,2.0,4.0,60,0.00,,,-99.99,,2013-05-28 12:42:00,
2013-05-28 08:52:00,61.0,46.0,-100.00,NNW,345,2.0,4.0,58,0.00,,,-99.99,,2013-05-28 12:52:00,
2013-05-28 09:01:00,62.0,44.0,-100.00,NNW,330,1.0,4.0,52,0.00,,,-99.99,,2013-05-28 13:01:00,
2013-05-28 09:11:00,64.0,46.0,-100.00,WSW,250,1.0,5.0,51,0.00,,,-99.99,,2013-05-28 13:11:00,
2013-05-28 09:21:00,64.0,44.0,-100.00,NNE,30,1.0,4.0,47,0.00,,,-99.99,,2013-05-28 13:21:00,
2013-05-28 09:32:00,67.0,45.0,-100.00,ENE,70,0.0,3.0,45,0.00,,,-99.99,,2013-05-28 13:32:00,
2013-05-28 09:42:00,68.0,41.0,-100.00,East,90,1.0,6.0,37,0.00,,,-99.99,,2013-05-28 13:42:00,
2013-05-28 09:52:00,67.0,36.0,-100.00,SSE,150,2.0,6.0,32,0.00,,,-99.99,,2013-05-28 13:52:00,
2013-05-28 10:02:00,67.0,37.0,-100.00,SSE,150,2.0,6.0,32,0.00,,,-99.99,,2013-05-28 14:02:00,
2013-05-28 10:11:00,68.0,37.0,-100.00,SSE,160,2.0,4.0,31,0.00,,,-99.99,,2013-05-28 14:11:00,
2013-05-28 10:21:00,68.0,39.0,-100.00,East,100,3.0,7.0,34,0.00,,,-99.99,,2013-05-28 14:21:00,
2013-05-28 10:32:00,68.0,41.0,-100.00,ENE,75,1.0,9.0,36,0.00,,,-99.99,,2013-05-28 14:32:00,
2013-05-28 10:42:00,69.0,40.0,-100.00,NNE,20,1.0,4.0,33,0.00,,,-99.99,,2013-05-28 14:42:00,
2013-05-28 10:52:00,68.0,38.0,-100.00,SSE,160,3.0,7.0,32,0.00,,,-99.99,,2013-05-28 14:52:00,
2013-05-28 11:01:00,69.0,41.0,-100.00,SW,215,1.0,7.0,35,0.00,,,-99.99,,2013-05-28 15:01:00,
2013-05-28 11:11:00,70.0,39.0,-100.00,WSW,255,1.0,6.0,32,0.00,,,-99.99,,2013-05-28 15:11:00,
2013-05-28 11:21:00,70.0,38.0,-100.00,ESE,115,3.0,7.0,30,0.00,,,-99.99,,2013-05-28 15:21:00,
2013-05-28 11:33:00,70.0,38.0,-100.00,East,100,2.0,8.0,30,0.00,,,-99.99,,2013-05-28 15:33:00,
2013-05-28 11:43:00,71.0,40.0,-100.00,SSE,155,1.0,6.0,32,0.00,,,-99.99,,2013-05-28 15:43:00,
2013-05-28 11:53:00,70.0,40.0,-100.00,ESE,115,2.0,6.0,34,0.00,,,-99.99,,2013-05-28 15:53:00,
2013-05-28 12:03:00,70.0,40.0,-100.00,SSE,155,2.0,9.0,33,0.00,,,-99.99,,2013-05-28 16:03:00,
2013-05-28 12:13:00,71.0,38.0,-100.00,ESE,105,2.0,7.0,29,0.00,,,-99.99,,2013-05-28 16:13:00,
2013-05-28 12:22:00,72.0,39.0,-100.00,East,80,1.0,7.0,30,0.00,,,-99.99,,2013-05-28 16:22:00,
2013-05-28 12:33:00,71.0,40.0,-100.00,SE,130,2.0,6.0,32,0.00,,,-99.99,,2013-05-28 16:33:00,
2013-05-28 12:42:00,71.0,37.0,-100.00,SSE,160,2.0,6.0,29,0.00,,,-99.99,,2013-05-28 16:42:00,
2013-05-28 12:52:00,71.0,40.0,-100.00,East,80,1.0,7.0,31,0.00,,,-99.99,,2013-05-28 16:52:00,
2013-05-28 13:02:00,72.0,41.0,-100.00,SE,140,2.0,4.0,33,0.00,,,-99.99,,2013-05-28 17:02:00,
2013-05-28 13:12:00,71.0,41.0,-100.00,SE,130,1.0,9.0,33,0.00,,,-99.99,,2013-05-28 17:12:00,
2013-05-28 13:22:00,72.0,40.0,-100.00,WSW,245,2.0,11.0,31,0.00,,,-99.99,,2013-05-28 17:22:00,
2013-05-28 13:32:00,72.0,38.0,-100.00,ESE,110,4.0,8.0,29,0.00,,,-99.99,,2013-05-28 17:32:00,
2013-05-28 13:42:00,72.0,37.0,-100.00,ESE,105,6.0,13.0,28,0.00,,,-99.99,,2013-05-28 17:42:00,
2013-05-28 13:51:00,72.0,40.0,-100.00,WSW,245,4.0,9.0,32,0.00,,,-99.99,,2013-05-28 17:51:00,
2013-05-28 14:01:00,71.0,38.0,-100.00,SE,145,2.0,10.0,29,0.00,,,-99.99,,2013-05-28 18:01:00,
2013-05-28 14:11:00,72.0,40.0,-100.00,SSE,155,2.0,10.0,31,0.00,,,-99.99,,2013-05-28 18:11:00,
2013-05-28 14:21:00,72.0,39.0,-100.00,ESE,115,6.0,14.0,31,0.00,,,-99.99,,2013-05-28 18:21:00,
2013-05-28 14:32:00,72.0,37.0,-100.00,ESE,115,2.0,10.0,28,0.00,,,-99.99,,2013-05-28 18:32:00,
2013-05-28 14:42:00,72.0,40.0,-100.00,SSE,155,2.0,11.0,30,0.00,,,-99.99,,2013-05-28 18:42:00,
2013-05-28 14:52:00,72.0,38.0,-100.00,SSE,155,3.0,9.0,28,0.00,,,-99.99,,2013-05-28 18:52:00,
2013-05-28 15:01:00,72.0,38.0,-100.00,WSW,240,2.0,7.0,28,0.00,,,-99.99,,2013-05-28 19:01:00,
2013-05-28 15:11:00,73.0,39.0,-100.00,SSW,200,1.0,7.0,29,0.00,,,-99.99,,2013-05-28 19:11:00,
2013-05-28 15:21:00,73.0,39.0,-100.00,NE,50,1.0,7.0,29,0.00,,,-99.99,,2013-05-28 19:21:00,
2013-05-28 15:32:00,72.0,39.0,-100.00,East,95,2.0,7.0,29,0.00,,,-99.99,,2013-05-28 19:32:00,
2013-05-28 15:42:00,74.0,40.0,-100.00,NE,35,1.0,6.0,29,0.00,,,-99.99,,2013-05-28 19:42:00,
2013-05-28 15:52:00,73.0,43.0,-100.00,South,185,1.0,7.0,33,0.00,,,-99.99,,2013-05-28 19:52:00,
2013-05-28 16:02:00,73.0,40.0,-100.00,ESE,115,2.0,7.0,30,0.00,,,-99.99,,2013-05-28 20:02:00,
2013-05-28 16:11:00,73.0,41.0,-100.00,ENE,65,1.0,7.0,30,0.00,,,-99.99,,2013-05-28 20:11:00,
2013-05-28 16:22:00,72.0,40.0,-100.00,East,100,7.0,12.0,32,0.00,,,-99.99,,2013-05-28 20:22:00,
2013-05-28 16:32:00,72.0,41.0,-100.00,East,95,4.0,8.0,32,0.00,,,-99.99,,2013-05-28 20:32:00,
2013-05-28 16:42:00,72.0,43.0,-100.00,South,175,1.0,8.0,34,0.00,,,-99.99,,2013-05-28 20:42:00,
2013-05-28 16:52:00,72.0,44.0,-100.00,ESE,105,3.0,7.0,36,0.00,,,-99.99,,2013-05-28 20:52:00,
2013-05-28 17:02:00,72.0,42.0,-100.00,SE,125,1.0,6.0,33,0.00,,,-99.99,,2013-05-28 21:02:00,
2013-05-28 17:11:00,71.0,42.0,-100.00,ESE,105,4.0,11.0,35,0.00,,,-99.99,,2013-05-28 21:11:00,
2013-05-28 17:21:00,71.0,42.0,-100.00,ESE,110,4.0,12.0,34,0.00,,,-99.99,,2013-05-28 21:21:00,
2013-05-28 17:33:00,70.0,42.0,-100.00,East,100,6.0,13.0,36,0.00,,,-99.99,,2013-05-28 21:33:00,
2013-05-28 17:43:00,70.0,42.0,-100.00,ESE,115,4.0,12.0,36,0.00,,,-99.99,,2013-05-28 21:43:00,
2013-05-28 17:53:00,69.0,42.0,-100.00,ESE,110,5.0,14.0,37,0.00,,,-99.99,,2013-05-28 21:53:00,
2013-05-28 18:02:00,69.0,42.0,-100.00,ESE,105,4.0,12.0,37,0.00,,,-99.99,,2013-05-28 22:02:00,
2013-05-28 18:12:00,68.0,43.0,-100.00,SSE,165,2.0,7.0,39,0.00,,,-99.99,,2013-05-28 22:12:00,
2013-05-28 18:22:00,68.0,42.0,-100.00,ESE,110,2.0,7.0,38,0.00,,,-99.99,,2013-05-28 22:22:00,
2013-05-28 18:33:00,67.0,41.0,-100.00,SE,140,2.0,7.0,38,0.00,,,-99.99,,2013-05-28 22:33:00,
2013-05-28 18:42:00,67.0,42.0,-100.00,ESE,105,2.0,7.0,39,0.00,,,-99.99,,2013-05-28 22:42:00,
2013-05-28 18:52:00,67.0,41.0,-100.00,SE,130,4.0,9.0,38,0.00,,,-99.99,,2013-05-28 22:52:00,
2013-05-28 19:02:00,66.0,41.0,-100.00,ESE,115,4.0,9.0,39,0.00,,,-99.99,,2013-05-28 23:02:00,
2013-05-28 19:11:00,66.0,41.0,-100.00,ESE,115,2.0,8.0,40,0.00,,,-99.99,,2013-05-28 23:11:00,
2013-05-28 19:22:00,66.0,42.0,-100.00,East,100,3.0,7.0,41,0.00,,,-99.99,,2013-05-28 23:22:00,
2013-05-28 19:32:00,66.0,42.0,-100.00,ESE,110,2.0,6.0,41,0.00,,,-99.99,,2013-05-28 23:32:00,
2013-05-28 19:42:00,65.0,42.0,-100.00,NE,40,1.0,5.0,43,0.00,,,-99.99,,2013-05-28 23:42:00,
2013-05-28 19:52:00,64.0,43.0,-100.00,SSE,150,1.0,4.0,46,0.00,,,-99.99,,2013-05-28 23:52:00,
2013-05-28 20:02:00,63.0,44.0,-100.00,North,355,1.0,4.0,49,0.00,,,-99.99,,2013-05-29 00:02:00,
2013-05-28 20:11:00,63.0,45.0,-100.00,SE,140,1.0,3.0,52,0.00,,,-99.99,,2013-05-29 00:11:00,
2013-05-28 20:21:00,62.0,45.0,-100.00,ENE,60,0.0,3.0,54,0.00,,,-99.99,,2013-05-29 00:21:00,
2013-05-28 20:32:00,61.0,47.0,-100.00,NNE,20,1.0,3.0,59,0.00,,,-99.99,,2013-05-29 00:32:00,
2013-05-28 20:42:00,60.0,46.0,-100.00,North,0,1.0,4.0,59,0.00,,,-99.99,,2013-05-29 00:42:00,
2013-05-28 20:52:00,60.0,47.0,-100.00,North,350,1.0,4.0,63,0.00,,,-99.99,,2013-05-29 00:52:00,
2013-05-28 21:01:00,59.0,47.0,-100.00,West,270,0.0,2.0,65,0.00,,,-99.99,,2013-05-29 01:01:00,
2013-05-28 21:11:00,58.0,47.0,-100.00,North,355,1.0,3.0,67,0.00,,,-99.99,,2013-05-29 01:11:00,
2013-05-28 21:22:00,57.0,47.0,-100.00,North,350,1.0,2.0,69,0.00,,,-99.99,,2013-05-29 01:22:00,
2013-05-28 21:32:00,57.0,48.0,-100.00,West,260,0.0,2.0,72,0.00,,,-99.99,,2013-05-29 01:32:00,
2013-05-28 21:42:00,56.0,48.0,-100.00,West,275,1.0,1.0,73,0.00,,,-99.99,,2013-05-29 01:42:00,
2013-05-28 21:52:00,56.0,48.0,-100.00,WSW,245,1.0,2.0,74,0.00,,,-99.99,,2013-05-29 01:52:00,
2013-05-28 22:02:00,56.0,48.0,-100.00,SSW,200,1.0,2.0,74,0.00,,,-99.99,,2013-05-29 02:02:00,
2013-05-28 22:12:00,56.0,48.0,-100.00,SW,230,1.0,2.0,76,0.00,,,-99.99,,2013-05-29 02:12:00,
2013-05-28 22:21:00,56.0,48.0,-100.00,NNW,340,1.0,2.0,76,0.00,,,-99.99,,2013-05-29 02:21:00,
2013-05-28 22:32:00,55.0,49.0,-100.00,NW,325,1.0,1.0,79,0.00,,,-99.99,,2013-05-29 02:32:00,
2013-05-28 22:42:00,55.0,49.0,-100.00,North,355,1.0,3.0,81,0.00,,,-99.99,,2013-05-29 02:42:00,
2013-05-28 22:51:00,55.0,50.0,-100.00,North,350,0.0,1.0,82,0.00,,,-99.99,,2013-05-29 02:51:00,
2013-05-28 23:02:00,55.0,50.0,-100.00,West,270,0.0,1.0,83,0.00,,,-99.99,,2013-05-29 03:02:00,
2013-05-28 23:12:00,54.0,50.0,-100.00,NNW,340,1.0,2.0,84,0.00,,,-99.99,,2013-05-29 03:12:00,
2013-05-28 23:21:00,53.0,49.0,-100.00,NW,315,0.0,2.0,86,0.00,,,-99.99,,2013-05-29 03:21:00,
2013-05-28 23:33:00,53.0,50.0,-100.00,North,0,1.0,2.0,88,0.00,,,-99.99,,2013-05-29 03:33:00,
2013-05-28 23:43:00,53.0,50.0,-100.00,NE,50,0.0,2.0,88,0.00,,,-99.99,,2013-05-29 03:43:00,
2013-05-28 23:53:00,53.0,50.0,-100.00,North,0,1.0,1.0,89,0.00,,,-99.99,,2013-05-29 03:53:00,